sensor_id;sensor_type;location;lat;lon;timestamp;temperature;humidity
2625;DHT22;1322;53.256;10.386;2022-12-20T00:00:12;7.00;99.90
2625;DHT22;1322;53.256;10.386;2022-12-20T00:02:37;6.80;99.90
2625;DHT22;1322;53.256;10.386;2022-12-20T00:05:04;7.00;99.90
2625;DHT22;1322;53.256;10.386;2022-12-20T00:07:29;6.90;99.90
2625;DHT22;1322;53.256;10.386;2022-12-20T00:09:55;7.00;99.90
2625;DHT22;1322;53.256;10.386;2022-12-20T00:12:20;6.90;99.90
2625;DHT22;1322;53.256;10.386;2022-12-20T00:14:46;7.40;99.90
2625;DHT22;1322;53.256;10.386;2022-12-20T00:17:12;6.80;99.90
2625;DHT22;1322;53.256;10.386;2022-12-20T00:19:37;7.00;99.90
2625;DHT22;1322;53.256;10.386;2022-12-20T00:22:03;7.10;99.90
2625;DHT22;1322;53.256;10.386;2022-12-20T00:24:28;7.40;99.90
2625;DHT22;1322;53.256;10.386;2022-12-20T00:26:54;6.90;99.90
2625;DHT22;1322;53.256;10.386;2022-12-20T00:29:19;7.00;99.90
2625;DHT22;1322;53.256;10.386;2022-12-20T00:31:45;7.40;99.90
2625;DHT22;1322;53.256;10.386;2022-12-20T00:34:11;7.10;99.90
2625;DHT22;1322;53.256;10.386;2022-12-20T00:36:38;6.90;99.90
2625;DHT22;1322;53.256;10.386;2022-12-20T00:39:04;7.10;99.90
2625;DHT22;1322;53.256;10.386;2022-12-20T00:41:32;6.90;99.90
2625;DHT22;1322;53.256;10.386;2022-12-20T00:43:58;7.00;99.90
2625;DHT22;1322;53.256;10.386;2022-12-20T00:46:24;7.10;99.90
2625;DHT22;1322;53.256;10.386;2022-12-20T00:48:50;7.10;99.90
2625;DHT22;1322;53.256;10.386;2022-12-20T00:51:18;7.50;99.90
2625;DHT22;1322;53.256;10.386;2022-12-20T00:53:45;7.30;99.90
2625;DHT22;1322;53.256;10.386;2022-12-20T00:56:11;7.30;99.90
2625;DHT22;1322;53.256;10.386;2022-12-20T00:58:39;7.20;99.90
2625;DHT22;1322;53.256;10.386;2022-12-20T01:01:20;7.20;99.90
2625;DHT22;1322;53.256;10.386;2022-12-20T01:03:46;7.20;99.90
2625;DHT22;1322;53.256;10.386;2022-12-20T01:06:13;7.70;99.90
2625;DHT22;1322;53.256;10.386;2022-12-20T01:08:38;7.80;99.90
2625;DHT22;1322;53.256;10.386;2022-12-20T01:11:11;7.50;99.90
2625;DHT22;1322;53.256;10.386;2022-12-20T01:13:40;7.70;99.90
2625;DHT22;1322;53.256;10.386;2022-12-20T01:16:25;7.80;99.90
2625;DHT22;1322;53.256;10.386;2022-12-20T01:18:52;7.50;99.90
2625;DHT22;1322;53.256;10.386;2022-12-20T01:21:19;7.60;99.90
2625;DHT22;1322;53.256;10.386;2022-12-20T01:23:45;7.70;99.90
2625;DHT22;1322;53.256;10.386;2022-12-20T01:26:15;7.80;99.90
2625;DHT22;1322;53.256;10.386;2022-12-20T01:28:42;7.70;99.90
2625;DHT22;1322;53.256;10.386;2022-12-20T01:31:09;7.70;99.90
2625;DHT22;1322;53.256;10.386;2022-12-20T01:33:36;7.70;99.90
2625;DHT22;1322;53.256;10.386;2022-12-20T01:36:04;7.80;99.90
2625;DHT22;1322;53.256;10.386;2022-12-20T01:38:31;7.70;99.90
2625;DHT22;1322;53.256;10.386;2022-12-20T01:40:57;7.70;99.90
2625;DHT22;1322;53.256;10.386;2022-12-20T01:43:24;7.80;99.90
2625;DHT22;1322;53.256;10.386;2022-12-20T01:45:50;7.80;99.90
2625;DHT22;1322;53.256;10.386;2022-12-20T01:48:24;7.80;99.90
2625;DHT22;1322;53.256;10.386;2022-12-20T01:50:50;7.80;99.90
2625;DHT22;1322;53.256;10.386;2022-12-20T01:53:17;8.10;99.90
2625;DHT22;1322;53.256;10.386;2022-12-20T01:55:44;7.80;99.90
2625;DHT22;1322;53.256;10.386;2022-12-20T01:58:13;7.90;99.90
2625;DHT22;1322;53.256;10.386;2022-12-20T02:00:40;7.80;99.90
2625;DHT22;1322;53.256;10.386;2022-12-20T02:03:09;7.90;99.90
2625;DHT22;1322;53.256;10.386;2022-12-20T02:05:39;7.90;99.90
2625;DHT22;1322;53.256;10.386;2022-12-20T02:08:05;7.80;99.90
2625;DHT22;1322;53.256;10.386;2022-12-20T02:16:23;7.90;99.90
2625;DHT22;1322;53.256;10.386;2022-12-20T02:27:29;8.00;99.90
2625;DHT22;1322;53.256;10.386;2022-12-20T02:30:05;8.00;99.90
2625;DHT22;1322;53.256;10.386;2022-12-20T02:32:47;8.00;99.90
2625;DHT22;1322;53.256;10.386;2022-12-20T02:35:18;7.90;99.90
2625;DHT22;1322;53.256;10.386;2022-12-20T02:37:55;7.90;99.90
2625;DHT22;1322;53.256;10.386;2022-12-20T02:40:27;7.90;99.90
2625;DHT22;1322;53.256;10.386;2022-12-20T02:43:00;7.90;99.90
2625;DHT22;1322;53.256;10.386;2022-12-20T02:45:31;7.80;99.90
2625;DHT22;1322;53.256;10.386;2022-12-20T02:48:05;7.90;99.90
2625;DHT22;1322;53.256;10.386;2022-12-20T02:50:38;7.90;99.90
2625;DHT22;1322;53.256;10.386;2022-12-20T02:53:07;7.80;99.90
2625;DHT22;1322;53.256;10.386;2022-12-20T02:55:47;7.80;99.90
2625;DHT22;1322;53.256;10.386;2022-12-20T03:00:56;7.70;99.90
2625;DHT22;1322;53.256;10.386;2022-12-20T03:03:33;7.80;99.90
2625;DHT22;1322;53.256;10.386;2022-12-20T03:06:02;7.90;99.90
2625;DHT22;1322;53.256;10.386;2022-12-20T03:08:30;8.00;99.90
2625;DHT22;1322;53.256;10.386;2022-12-20T03:10:59;8.40;99.90
2625;DHT22;1322;53.256;10.386;2022-12-20T03:13:26;7.80;99.90
2625;DHT22;1322;53.256;10.386;2022-12-20T03:15:54;7.90;99.90
2625;DHT22;1322;53.256;10.386;2022-12-20T03:18:20;7.80;99.90
2625;DHT22;1322;53.256;10.386;2022-12-20T03:20:45;7.90;99.90
2625;DHT22;1322;53.256;10.386;2022-12-20T03:23:16;8.10;99.90
2625;DHT22;1322;53.256;10.386;2022-12-20T03:25:44;8.00;99.90
2625;DHT22;1322;53.256;10.386;2022-12-20T03:28:13;8.00;99.90
2625;DHT22;1322;53.256;10.386;2022-12-20T03:30:41;8.10;99.90
2625;DHT22;1322;53.256;10.386;2022-12-20T03:33:09;8.10;99.90
2625;DHT22;1322;53.256;10.386;2022-12-20T03:35:38;8.10;99.90
2625;DHT22;1322;53.256;10.386;2022-12-20T03:38:06;8.10;99.90
2625;DHT22;1322;53.256;10.386;2022-12-20T03:40:32;8.00;99.90
2625;DHT22;1322;53.256;10.386;2022-12-20T03:43:01;8.00;99.90
2625;DHT22;1322;53.256;10.386;2022-12-20T03:45:27;8.00;99.90
2625;DHT22;1322;53.256;10.386;2022-12-20T03:47:57;8.10;99.90
2625;DHT22;1322;53.256;10.386;2022-12-20T03:50:25;8.00;99.90
2625;DHT22;1322;53.256;10.386;2022-12-20T03:52:53;8.10;99.90
2625;DHT22;1322;53.256;10.386;2022-12-20T03:55:20;8.20;99.90
2625;DHT22;1322;53.256;10.386;2022-12-20T03:57:50;8.10;99.90
2625;DHT22;1322;53.256;10.386;2022-12-20T04:00:19;8.10;99.90
2625;DHT22;1322;53.256;10.386;2022-12-20T04:02:45;8.20;99.90
2625;DHT22;1322;53.256;10.386;2022-12-20T04:05:13;8.10;99.90
2625;DHT22;1322;53.256;10.386;2022-12-20T04:07:42;8.10;99.90
2625;DHT22;1322;53.256;10.386;2022-12-20T04:10:12;8.20;99.90
2625;DHT22;1322;53.256;10.386;2022-12-20T04:12:39;8.10;99.90
2625;DHT22;1322;53.256;10.386;2022-12-20T04:15:07;8.10;99.90
2625;DHT22;1322;53.256;10.386;2022-12-20T04:17:34;8.20;99.90
2625;DHT22;1322;53.256;10.386;2022-12-20T04:20:04;8.20;99.90
2625;DHT22;1322;53.256;10.386;2022-12-20T04:22:52;8.20;99.90
2625;DHT22;1322;53.256;10.386;2022-12-20T04:25:20;8.30;99.90
2625;DHT22;1322;53.256;10.386;2022-12-20T04:27:48;8.30;99.90
2625;DHT22;1322;53.256;10.386;2022-12-20T04:30:16;8.20;99.90
2625;DHT22;1322;53.256;10.386;2022-12-20T04:32:46;8.30;99.90
2625;DHT22;1322;53.256;10.386;2022-12-20T04:35:11;8.40;99.90
2625;DHT22;1322;53.256;10.386;2022-12-20T04:37:39;8.40;99.90
2625;DHT22;1322;53.256;10.386;2022-12-20T04:40:08;8.40;99.90
2625;DHT22;1322;53.256;10.386;2022-12-20T04:42:36;8.40;99.90
2625;DHT22;1322;53.256;10.386;2022-12-20T04:45:01;8.30;99.90
2625;DHT22;1322;53.256;10.386;2022-12-20T04:47:29;8.40;99.90
2625;DHT22;1322;53.256;10.386;2022-12-20T04:49:56;8.40;99.90
2625;DHT22;1322;53.256;10.386;2022-12-20T04:52:25;8.40;99.90
2625;DHT22;1322;53.256;10.386;2022-12-20T04:55:09;8.30;99.90
2625;DHT22;1322;53.256;10.386;2022-12-20T04:57:35;8.70;99.90
2625;DHT22;1322;53.256;10.386;2022-12-20T05:00:00;8.40;99.90
2625;DHT22;1322;53.256;10.386;2022-12-20T05:02:26;8.30;99.90
2625;DHT22;1322;53.256;10.386;2022-12-20T05:04:51;8.30;99.90
2625;DHT22;1322;53.256;10.386;2022-12-20T05:07:17;8.40;99.90
2625;DHT22;1322;53.256;10.386;2022-12-20T05:09:42;8.30;99.90
2625;DHT22;1322;53.256;10.386;2022-12-20T05:12:08;8.60;99.90
2625;DHT22;1322;53.256;10.386;2022-12-20T05:14:34;8.30;99.90
2625;DHT22;1322;53.256;10.386;2022-12-20T05:16:59;8.40;99.90
2625;DHT22;1322;53.256;10.386;2022-12-20T05:19:25;8.40;99.90
2625;DHT22;1322;53.256;10.386;2022-12-20T05:21:50;8.50;99.90
2625;DHT22;1322;53.256;10.386;2022-12-20T05:24:34;8.50;99.90
2625;DHT22;1322;53.256;10.386;2022-12-20T05:27:18;8.50;99.90
2625;DHT22;1322;53.256;10.386;2022-12-20T05:29:44;8.60;99.90
2625;DHT22;1322;53.256;10.386;2022-12-20T05:32:10;8.50;99.90
2625;DHT22;1322;53.256;10.386;2022-12-20T05:34:35;8.50;99.90
2625;DHT22;1322;53.256;10.386;2022-12-20T05:37:01;8.60;99.90
2625;DHT22;1322;53.256;10.386;2022-12-20T05:39:26;8.50;99.90
2625;DHT22;1322;53.256;10.386;2022-12-20T05:41:52;8.50;99.90
2625;DHT22;1322;53.256;10.386;2022-12-20T05:44:18;8.50;99.90
2625;DHT22;1322;53.256;10.386;2022-12-20T05:46:44;8.50;99.90
2625;DHT22;1322;53.256;10.386;2022-12-20T05:49:10;8.50;99.90
2625;DHT22;1322;53.256;10.386;2022-12-20T05:51:35;8.40;99.90
2625;DHT22;1322;53.256;10.386;2022-12-20T05:54:01;8.60;99.90
2625;DHT22;1322;53.256;10.386;2022-12-20T05:56:27;8.40;99.90
2625;DHT22;1322;53.256;10.386;2022-12-20T05:58:53;8.50;99.90
2625;DHT22;1322;53.256;10.386;2022-12-20T06:01:18;8.40;99.90
2625;DHT22;1322;53.256;10.386;2022-12-20T06:03:44;8.40;99.90
2625;DHT22;1322;53.256;10.386;2022-12-20T06:06:10;8.50;99.90
2625;DHT22;1322;53.256;10.386;2022-12-20T06:08:36;8.30;99.90
2625;DHT22;1322;53.256;10.386;2022-12-20T06:11:01;8.30;99.90
2625;DHT22;1322;53.256;10.386;2022-12-20T06:13:30;8.30;99.90
2625;DHT22;1322;53.256;10.386;2022-12-20T06:15:55;8.30;99.90
2625;DHT22;1322;53.256;10.386;2022-12-20T06:18:21;8.30;99.90
2625;DHT22;1322;53.256;10.386;2022-12-20T06:20:51;8.30;99.90
2625;DHT22;1322;53.256;10.386;2022-12-20T06:23:17;8.30;99.90
2625;DHT22;1322;53.256;10.386;2022-12-20T06:25:42;8.30;99.90
2625;DHT22;1322;53.256;10.386;2022-12-20T06:28:09;8.60;99.90
2625;DHT22;1322;53.256;10.386;2022-12-20T06:30:35;8.30;99.90
2625;DHT22;1322;53.256;10.386;2022-12-20T06:33:01;8.30;99.90
2625;DHT22;1322;53.256;10.386;2022-12-20T06:35:27;8.30;99.90
2625;DHT22;1322;53.256;10.386;2022-12-20T06:37:53;8.30;99.90
2625;DHT22;1322;53.256;10.386;2022-12-20T06:40:19;8.30;99.90
2625;DHT22;1322;53.256;10.386;2022-12-20T06:42:44;8.30;99.90
2625;DHT22;1322;53.256;10.386;2022-12-20T06:45:10;8.30;99.90
2625;DHT22;1322;53.256;10.386;2022-12-20T06:47:36;8.30;99.90
2625;DHT22;1322;53.256;10.386;2022-12-20T06:50:03;8.40;99.90
2625;DHT22;1322;53.256;10.386;2022-12-20T06:52:29;8.30;99.90
2625;DHT22;1322;53.256;10.386;2022-12-20T06:54:54;8.30;99.90
2625;DHT22;1322;53.256;10.386;2022-12-20T07:21:54;8.30;99.90
2625;DHT22;1322;53.256;10.386;2022-12-20T07:24:20;8.40;99.90
2625;DHT22;1322;53.256;10.386;2022-12-20T07:26:46;8.30;99.90
2625;DHT22;1322;53.256;10.386;2022-12-20T07:29:12;8.30;99.90
2625;DHT22;1322;53.256;10.386;2022-12-20T07:31:38;8.40;99.90
2625;DHT22;1322;53.256;10.386;2022-12-20T07:34:03;8.40;99.90
2625;DHT22;1322;53.256;10.386;2022-12-20T07:36:29;8.40;99.90
2625;DHT22;1322;53.256;10.386;2022-12-20T07:38:54;8.40;99.90
2625;DHT22;1322;53.256;10.386;2022-12-20T07:41:20;8.50;99.90
2625;DHT22;1322;53.256;10.386;2022-12-20T07:43:46;8.40;99.90
2625;DHT22;1322;53.256;10.386;2022-12-20T07:46:13;8.50;99.90
2625;DHT22;1322;53.256;10.386;2022-12-20T07:48:39;8.50;99.90
2625;DHT22;1322;53.256;10.386;2022-12-20T07:51:17;8.50;99.90
2625;DHT22;1322;53.256;10.386;2022-12-20T07:53:49;8.50;99.90
2625;DHT22;1322;53.256;10.386;2022-12-20T07:56:17;8.50;99.90
2625;DHT22;1322;53.256;10.386;2022-12-20T07:58:45;8.50;99.90
2625;DHT22;1322;53.256;10.386;2022-12-20T08:01:11;8.50;99.90
2625;DHT22;1322;53.256;10.386;2022-12-20T08:03:45;8.80;99.90
2625;DHT22;1322;53.256;10.386;2022-12-20T08:06:12;8.60;99.90
2625;DHT22;1322;53.256;10.386;2022-12-20T08:08:44;8.60;99.90
2625;DHT22;1322;53.256;10.386;2022-12-20T08:11:13;8.60;99.90
2625;DHT22;1322;53.256;10.386;2022-12-20T08:13:39;8.80;99.90
2625;DHT22;1322;53.256;10.386;2022-12-20T08:16:05;8.70;99.90
2625;DHT22;1322;53.256;10.386;2022-12-20T08:18:31;8.70;99.90
2625;DHT22;1322;53.256;10.386;2022-12-20T08:20:56;8.90;99.90
2625;DHT22;1322;53.256;10.386;2022-12-20T08:23:22;8.80;99.90
2625;DHT22;1322;53.256;10.386;2022-12-20T08:25:48;8.90;99.90
2625;DHT22;1322;53.256;10.386;2022-12-20T08:28:14;8.90;99.90
2625;DHT22;1322;53.256;10.386;2022-12-20T08:30:40;9.00;99.90
2625;DHT22;1322;53.256;10.386;2022-12-20T08:33:05;9.10;99.90
2625;DHT22;1322;53.256;10.386;2022-12-20T08:35:31;8.90;99.90
2625;DHT22;1322;53.256;10.386;2022-12-20T08:37:57;9.10;99.90
2625;DHT22;1322;53.256;10.386;2022-12-20T08:40:22;9.00;99.90
2625;DHT22;1322;53.256;10.386;2022-12-20T08:42:48;9.10;99.90
2625;DHT22;1322;53.256;10.386;2022-12-20T08:45:14;9.00;99.90
2625;DHT22;1322;53.256;10.386;2022-12-20T08:47:39;9.10;99.90
2625;DHT22;1322;53.256;10.386;2022-12-20T08:50:06;9.10;99.90
2625;DHT22;1322;53.256;10.386;2022-12-20T08:52:31;9.20;99.90
2625;DHT22;1322;53.256;10.386;2022-12-20T08:54:57;9.10;99.90
2625;DHT22;1322;53.256;10.386;2022-12-20T08:57:23;9.10;99.90
2625;DHT22;1322;53.256;10.386;2022-12-20T08:59:48;9.20;99.90
2625;DHT22;1322;53.256;10.386;2022-12-20T09:02:14;9.10;99.90
2625;DHT22;1322;53.256;10.386;2022-12-20T09:04:39;9.20;99.90
2625;DHT22;1322;53.256;10.386;2022-12-20T09:07:05;9.20;99.90
2625;DHT22;1322;53.256;10.386;2022-12-20T09:09:31;9.30;99.90
2625;DHT22;1322;53.256;10.386;2022-12-20T09:11:56;9.30;99.90
2625;DHT22;1322;53.256;10.386;2022-12-20T09:14:22;9.30;99.90
2625;DHT22;1322;53.256;10.386;2022-12-20T09:16:48;9.40;99.90
2625;DHT22;1322;53.256;10.386;2022-12-20T09:19:14;9.40;99.90
2625;DHT22;1322;53.256;10.386;2022-12-20T09:21:40;9.50;99.90
2625;DHT22;1322;53.256;10.386;2022-12-20T09:24:06;9.40;99.90
2625;DHT22;1322;53.256;10.386;2022-12-20T09:26:32;9.60;99.90
2625;DHT22;1322;53.256;10.386;2022-12-20T09:28:59;9.70;99.90
2625;DHT22;1322;53.256;10.386;2022-12-20T09:31:26;9.70;99.90
2625;DHT22;1322;53.256;10.386;2022-12-20T09:33:56;9.70;99.90
2625;DHT22;1322;53.256;10.386;2022-12-20T09:36:23;9.80;99.90
2625;DHT22;1322;53.256;10.386;2022-12-20T09:38:49;9.80;99.90
2625;DHT22;1322;53.256;10.386;2022-12-20T09:41:28;9.90;99.90
2625;DHT22;1322;53.256;10.386;2022-12-20T09:43:57;9.90;99.90
2625;DHT22;1322;53.256;10.386;2022-12-20T09:46:25;10.00;99.90
2625;DHT22;1322;53.256;10.386;2022-12-20T09:48:51;10.10;99.90
2625;DHT22;1322;53.256;10.386;2022-12-20T09:51:34;10.20;99.90
2625;DHT22;1322;53.256;10.386;2022-12-20T09:54:06;10.20;99.90
2625;DHT22;1322;53.256;10.386;2022-12-20T09:59:07;10.30;99.90
2625;DHT22;1322;53.256;10.386;2022-12-20T10:01:35;10.30;99.90
2625;DHT22;1322;53.256;10.386;2022-12-20T10:12:38;10.50;99.90
2625;DHT22;1322;53.256;10.386;2022-12-20T10:15:26;10.50;99.90
2625;DHT22;1322;53.256;10.386;2022-12-20T10:25:31;10.70;99.90
2625;DHT22;1322;53.256;10.386;2022-12-20T10:28:00;10.80;99.90
2625;DHT22;1322;53.256;10.386;2022-12-20T10:30:28;10.80;99.90
2625;DHT22;1322;53.256;10.386;2022-12-20T10:32:56;10.90;99.90
2625;DHT22;1322;53.256;10.386;2022-12-20T10:35:40;10.90;99.90
2625;DHT22;1322;53.256;10.386;2022-12-20T10:38:10;10.90;99.90
2625;DHT22;1322;53.256;10.386;2022-12-20T10:43:21;10.80;99.90
2625;DHT22;1322;53.256;10.386;2022-12-20T10:46:07;10.90;99.90
2625;DHT22;1322;53.256;10.386;2022-12-20T10:48:38;10.90;99.90
2625;DHT22;1322;53.256;10.386;2022-12-20T10:53:49;10.90;99.90
2625;DHT22;1322;53.256;10.386;2022-12-20T10:58:53;10.90;99.90
2625;DHT22;1322;53.256;10.386;2022-12-20T11:01:20;10.90;99.90
2625;DHT22;1322;53.256;10.386;2022-12-20T11:06:18;10.90;99.90
2625;DHT22;1322;53.256;10.386;2022-12-20T11:08:44;10.90;99.90
2625;DHT22;1322;53.256;10.386;2022-12-20T11:11:23;10.90;99.90
2625;DHT22;1322;53.256;10.386;2022-12-20T11:13:50;11.00;99.90
2625;DHT22;1322;53.256;10.386;2022-12-20T11:16:34;11.00;99.90
2625;DHT22;1322;53.256;10.386;2022-12-20T11:19:29;10.90;99.90
2625;DHT22;1322;53.256;10.386;2022-12-20T11:22:09;10.90;99.90
2625;DHT22;1322;53.256;10.386;2022-12-20T11:25:16;11.00;99.90
2625;DHT22;1322;53.256;10.386;2022-12-20T11:33:54;11.10;99.90
2625;DHT22;1322;53.256;10.386;2022-12-20T11:39:07;11.10;99.90
2625;DHT22;1322;53.256;10.386;2022-12-20T11:42:46;11.20;99.90
2625;DHT22;1322;53.256;10.386;2022-12-20T11:45:04;11.20;99.90
2625;DHT22;1322;53.256;10.386;2022-12-20T11:52:59;11.00;99.90
2625;DHT22;1322;53.256;10.386;2022-12-20T11:55:30;11.00;99.90
2625;DHT22;1322;53.256;10.386;2022-12-20T12:00:44;11.00;99.90
2625;DHT22;1322;53.256;10.386;2022-12-20T12:06:01;11.00;99.90
2625;DHT22;1322;53.256;10.386;2022-12-20T12:11:20;11.10;99.90
2625;DHT22;1322;53.256;10.386;2022-12-20T12:13:47;11.10;99.90
2625;DHT22;1322;53.256;10.386;2022-12-20T12:16:31;11.10;99.90
2625;DHT22;1322;53.256;10.386;2022-12-20T12:18:59;11.10;99.90
2625;DHT22;1322;53.256;10.386;2022-12-20T12:21:37;11.20;99.90
2625;DHT22;1322;53.256;10.386;2022-12-20T12:26:34;11.20;99.90
2625;DHT22;1322;53.256;10.386;2022-12-20T12:29:04;11.20;99.90
2625;DHT22;1322;53.256;10.386;2022-12-20T12:40:26;11.20;99.90
2625;DHT22;1322;53.256;10.386;2022-12-20T12:48:26;11.40;99.90
2625;DHT22;1322;53.256;10.386;2022-12-20T12:50:54;11.50;99.90
2625;DHT22;1322;53.256;10.386;2022-12-20T12:53:36;11.40;99.90
2625;DHT22;1322;53.256;10.386;2022-12-20T13:01:55;11.50;99.90
2625;DHT22;1322;53.256;10.386;2022-12-20T13:09:52;11.60;99.90
2625;DHT22;1322;53.256;10.386;2022-12-20T13:17:58;11.50;99.90
2625;DHT22;1322;53.256;10.386;2022-12-20T13:20:33;11.60;99.90
2625;DHT22;1322;53.256;10.386;2022-12-20T13:25:39;11.60;99.90
2625;DHT22;1322;53.256;10.386;2022-12-20T13:33:44;11.60;99.90
2625;DHT22;1322;53.256;10.386;2022-12-20T13:38:56;11.70;99.90
2625;DHT22;1322;53.256;10.386;2022-12-20T13:43:49;11.70;99.90
2625;DHT22;1322;53.256;10.386;2022-12-20T13:49:10;11.70;99.90
2625;DHT22;1322;53.256;10.386;2022-12-20T13:51:37;11.60;99.90
2625;DHT22;1322;53.256;10.386;2022-12-20T13:54:05;11.50;99.90
2625;DHT22;1322;53.256;10.386;2022-12-20T14:01:47;11.50;99.90
2625;DHT22;1322;53.256;10.386;2022-12-20T14:04:13;10.90;99.90
2625;DHT22;1322;53.256;10.386;2022-12-20T14:06:39;11.40;99.90
2625;DHT22;1322;53.256;10.386;2022-12-20T14:09:26;11.40;99.90
2625;DHT22;1322;53.256;10.386;2022-12-20T14:11:52;11.50;99.90
2625;DHT22;1322;53.256;10.386;2022-12-20T14:14:19;11.40;99.90
2625;DHT22;1322;53.256;10.386;2022-12-20T14:16:45;11.40;99.90
2625;DHT22;1322;53.256;10.386;2022-12-20T14:19:14;11.50;99.90
2625;DHT22;1322;53.256;10.386;2022-12-20T14:21:42;11.20;99.90
2625;DHT22;1322;53.256;10.386;2022-12-20T14:24:17;11.30;99.90
2625;DHT22;1322;53.256;10.386;2022-12-20T14:26:45;11.30;99.90
2625;DHT22;1322;53.256;10.386;2022-12-20T14:29:18;11.20;99.90
2625;DHT22;1322;53.256;10.386;2022-12-20T14:31:46;11.30;99.90
2625;DHT22;1322;53.256;10.386;2022-12-20T14:34:20;11.30;99.90
2625;DHT22;1322;53.256;10.386;2022-12-20T14:36:48;11.40;99.90
2625;DHT22;1322;53.256;10.386;2022-12-20T14:39:29;11.30;99.90
2625;DHT22;1322;53.256;10.386;2022-12-20T14:44:26;11.30;99.90
2625;DHT22;1322;53.256;10.386;2022-12-20T14:46:57;11.30;99.90
2625;DHT22;1322;53.256;10.386;2022-12-20T14:49:28;11.40;99.90
2625;DHT22;1322;53.256;10.386;2022-12-20T14:54:42;11.30;99.90
2625;DHT22;1322;53.256;10.386;2022-12-20T14:57:30;11.30;99.90
2625;DHT22;1322;53.256;10.386;2022-12-20T15:00:12;11.20;99.90
2625;DHT22;1322;53.256;10.386;2022-12-20T15:07:51;11.00;99.90
2625;DHT22;1322;53.256;10.386;2022-12-20T15:10:16;11.00;99.90
2625;DHT22;1322;53.256;10.386;2022-12-20T15:12:42;10.90;99.90
2625;DHT22;1322;53.256;10.386;2022-12-20T15:15:14;10.90;99.90
2625;DHT22;1322;53.256;10.386;2022-12-20T15:17:40;10.90;99.90
2625;DHT22;1322;53.256;10.386;2022-12-20T15:20:11;11.00;99.90
2625;DHT22;1322;53.256;10.386;2022-12-20T15:22:37;10.90;99.90
2625;DHT22;1322;53.256;10.386;2022-12-20T15:25:13;11.00;99.90
2625;DHT22;1322;53.256;10.386;2022-12-20T15:27:40;11.00;99.90
2625;DHT22;1322;53.256;10.386;2022-12-20T15:30:11;11.00;99.90
2625;DHT22;1322;53.256;10.386;2022-12-20T15:32:38;11.00;99.90
2625;DHT22;1322;53.256;10.386;2022-12-20T15:35:10;11.00;99.90
2625;DHT22;1322;53.256;10.386;2022-12-20T15:37:37;11.00;99.90
2625;DHT22;1322;53.256;10.386;2022-12-20T15:40:02;11.00;99.90
2625;DHT22;1322;53.256;10.386;2022-12-20T15:42:28;10.90;99.90
2625;DHT22;1322;53.256;10.386;2022-12-20T15:44:54;11.00;99.90
2625;DHT22;1322;53.256;10.386;2022-12-20T15:47:20;11.00;99.90
2625;DHT22;1322;53.256;10.386;2022-12-20T15:49:45;10.90;99.90
2625;DHT22;1322;53.256;10.386;2022-12-20T15:52:18;11.00;99.90
2625;DHT22;1322;53.256;10.386;2022-12-20T15:54:44;11.00;99.90
2625;DHT22;1322;53.256;10.386;2022-12-20T15:57:12;11.00;99.90
2625;DHT22;1322;53.256;10.386;2022-12-20T15:59:39;11.00;99.90
2625;DHT22;1322;53.256;10.386;2022-12-20T16:02:21;10.90;99.90
2625;DHT22;1322;53.256;10.386;2022-12-20T16:04:47;11.00;99.90
2625;DHT22;1322;53.256;10.386;2022-12-20T16:07:13;10.90;99.90
2625;DHT22;1322;53.256;10.386;2022-12-20T16:09:38;10.90;99.90
2625;DHT22;1322;53.256;10.386;2022-12-20T16:15:18;10.80;99.90
2625;DHT22;1322;53.256;10.386;2022-12-20T16:17:44;10.90;99.90
2625;DHT22;1322;53.256;10.386;2022-12-20T16:20:10;10.90;99.90
2625;DHT22;1322;53.256;10.386;2022-12-20T16:22:36;11.00;99.90
2625;DHT22;1322;53.256;10.386;2022-12-20T16:25:02;11.00;99.90
2625;DHT22;1322;53.256;10.386;2022-12-20T16:27:27;10.90;99.90
2625;DHT22;1322;53.256;10.386;2022-12-20T16:29:53;11.00;99.90
2625;DHT22;1322;53.256;10.386;2022-12-20T16:32:19;11.00;99.90
2625;DHT22;1322;53.256;10.386;2022-12-20T16:34:49;11.00;99.90
2625;DHT22;1322;53.256;10.386;2022-12-20T16:37:15;11.00;99.90
2625;DHT22;1322;53.256;10.386;2022-12-20T16:39:41;10.90;99.90
2625;DHT22;1322;53.256;10.386;2022-12-20T16:42:14;10.90;99.90
2625;DHT22;1322;53.256;10.386;2022-12-20T16:44:40;10.90;99.90
2625;DHT22;1322;53.256;10.386;2022-12-20T16:47:09;11.00;99.90
2625;DHT22;1322;53.256;10.386;2022-12-20T16:49:34;11.00;99.90
2625;DHT22;1322;53.256;10.386;2022-12-20T16:52:02;11.00;99.90
2625;DHT22;1322;53.256;10.386;2022-12-20T16:54:28;10.90;99.90
2625;DHT22;1322;53.256;10.386;2022-12-20T16:56:54;10.90;99.90
2625;DHT22;1322;53.256;10.386;2022-12-20T16:59:22;11.00;99.90
2625;DHT22;1322;53.256;10.386;2022-12-20T17:01:49;11.00;99.90
2625;DHT22;1322;53.256;10.386;2022-12-20T17:04:17;11.00;99.90
2625;DHT22;1322;53.256;10.386;2022-12-20T17:06:43;11.00;99.90
2625;DHT22;1322;53.256;10.386;2022-12-20T17:09:09;11.00;99.90
2625;DHT22;1322;53.256;10.386;2022-12-20T17:11:36;11.00;99.90
2625;DHT22;1322;53.256;10.386;2022-12-20T17:14:03;11.10;99.90
2625;DHT22;1322;53.256;10.386;2022-12-20T17:16:29;11.00;99.90
2625;DHT22;1322;53.256;10.386;2022-12-20T17:18:55;11.10;99.90
2625;DHT22;1322;53.256;10.386;2022-12-20T17:21:40;11.10;99.90
2625;DHT22;1322;53.256;10.386;2022-12-20T17:24:15;11.10;99.90
2625;DHT22;1322;53.256;10.386;2022-12-20T17:26:41;11.10;99.90
2625;DHT22;1322;53.256;10.386;2022-12-20T17:29:08;11.00;99.90
2625;DHT22;1322;53.256;10.386;2022-12-20T17:31:36;11.10;99.90
2625;DHT22;1322;53.256;10.386;2022-12-20T17:34:08;11.00;99.90
2625;DHT22;1322;53.256;10.386;2022-12-20T17:36:39;10.90;99.90
2625;DHT22;1322;53.256;10.386;2022-12-20T17:39:04;10.90;99.90
2625;DHT22;1322;53.256;10.386;2022-12-20T17:41:31;10.90;99.90
2625;DHT22;1322;53.256;10.386;2022-12-20T17:43:58;10.90;99.90
2625;DHT22;1322;53.256;10.386;2022-12-20T17:46:24;10.90;99.90
2625;DHT22;1322;53.256;10.386;2022-12-20T17:48:50;10.90;99.90
2625;DHT22;1322;53.256;10.386;2022-12-20T17:51:28;10.90;99.90
2625;DHT22;1322;53.256;10.386;2022-12-20T17:53:58;10.80;99.90
2625;DHT22;1322;53.256;10.386;2022-12-20T17:56:33;10.80;99.90
2625;DHT22;1322;53.256;10.386;2022-12-20T17:58:59;10.80;99.90
2625;DHT22;1322;53.256;10.386;2022-12-20T18:01:34;10.80;99.90
2625;DHT22;1322;53.256;10.386;2022-12-20T18:04:05;10.80;99.90
2625;DHT22;1322;53.256;10.386;2022-12-20T18:06:32;10.80;99.90
2625;DHT22;1322;53.256;10.386;2022-12-20T18:08:58;10.80;99.90
2625;DHT22;1322;53.256;10.386;2022-12-20T18:11:26;10.80;99.90
2625;DHT22;1322;53.256;10.386;2022-12-20T18:13:57;10.80;99.90
2625;DHT22;1322;53.256;10.386;2022-12-20T18:16:27;10.80;99.90
2625;DHT22;1322;53.256;10.386;2022-12-20T18:18:54;11.00;99.90
2625;DHT22;1322;53.256;10.386;2022-12-20T18:21:21;10.90;99.90
2625;DHT22;1322;53.256;10.386;2022-12-20T18:23:47;10.80;99.90
2625;DHT22;1322;53.256;10.386;2022-12-20T18:28:49;10.80;99.90
2625;DHT22;1322;53.256;10.386;2022-12-20T18:31:17;10.80;99.90
2625;DHT22;1322;53.256;10.386;2022-12-20T18:33:44;10.80;99.90
2625;DHT22;1322;53.256;10.386;2022-12-20T18:36:19;10.80;99.90
2625;DHT22;1322;53.256;10.386;2022-12-20T18:38:46;10.80;99.90
2625;DHT22;1322;53.256;10.386;2022-12-20T18:41:20;10.70;99.90
2625;DHT22;1322;53.256;10.386;2022-12-20T18:43:49;10.80;99.90
2625;DHT22;1322;53.256;10.386;2022-12-20T18:46:19;10.80;99.90
2625;DHT22;1322;53.256;10.386;2022-12-20T18:48:46;10.90;99.90